Time;durP1;ratioP1;P1;durP2;ratioP2;P2;SDS_P1;SDS_P2;PMS_P1;PMS_P2;Temp;Humidity;BMP_temperature;BMP_pressure;BME280_temperature;BME280_humidity;BME280_pressure;Samples;Min_cycle;Max_cycle;Signal;HPM_P1;HPM_P2
2021/05/01 00:01:29;;;;;;;15.48;12.18;;;9.10;75.20;;;;;;5028233;28;20064;-64
2021/05/01 00:03:59;;;;;;;16.48;12.93;;;9.10;75.30;;;;;;5033111;28;20041;-65
2021/05/01 00:06:32;;;;;;;15.50;12.13;;;9.10;75.20;;;;;;5031838;28;20041;-65
2021/05/01 00:08:59;;;;;;;16.92;13.30;;;9.00;75.40;;;;;;5036065;28;20037;-64
2021/05/01 00:11:27;;;;;;;17.88;14.52;;;9.00;76.30;;;;;;5036764;28;20511;-64
2021/05/01 00:13:58;;;;;;;17.48;13.98;;;9.10;75.60;;;;;;5029954;28;20033;-64
2021/05/01 00:16:25;;;;;;;17.38;14.07;;;9.00;75.90;;;;;;5031688;28;20138;-65
2021/05/01 00:18:53;;;;;;;19.70;14.55;;;9.00;75.80;;;;;;5034416;28;20042;-65
2021/05/01 00:21:21;;;;;;;18.35;13.88;;;8.90;75.80;;;;;;5036555;28;20033;-64
2021/05/01 00:23:49;;;;;;;18.58;13.23;;;8.90;75.80;;;;;;5036393;28;20061;-64
2021/05/01 00:26:20;;;;;;;17.75;13.80;;;8.90;75.90;;;;;;5037516;28;20036;-65
2021/05/01 00:28:48;;;;;;;18.60;13.55;;;8.80;76.20;;;;;;5034442;28;20654;-64
2021/05/01 00:31:19;;;;;;;17.65;13.65;;;8.80;76.30;;;;;;5033482;28;20088;-65
2021/05/01 00:33:45;;;;;;;17.58;13.38;;;8.80;76.50;;;;;;5036728;28;20057;-64
2021/05/01 00:36:15;;;;;;;19.38;13.82;;;8.70;76.20;;;;;;5037854;28;20684;-64
2021/05/01 00:38:43;;;;;;;18.83;13.70;;;8.70;76.40;;;;;;5032281;28;21805;-64
2021/05/01 00:41:10;;;;;;;19.38;14.27;;;8.70;77.40;;;;;;5029870;28;20121;-65
2021/05/01 00:43:41;;;;;;;17.60;13.52;;;8.70;76.80;;;;;;5032775;28;20041;-65
2021/05/01 00:46:10;;;;;;;18.25;13.23;;;8.70;77.30;;;;;;5030137;28;20037;-66
2021/05/01 00:48:40;;;;;;;19.13;13.73;;;8.70;77.10;;;;;;5034955;28;20029;-65
2021/05/01 00:51:08;;;;;;;20.23;14.68;;;8.70;77.20;;;;;;5029191;28;20576;-65
2021/05/01 00:53:38;;;;;;;19.65;14.20;;;8.70;77.20;;;;;;5035907;28;20116;-64
2021/05/01 00:56:06;;;;;;;20.35;14.65;;;8.70;77.20;;;;;;5034485;28;20071;-65
2021/05/01 00:58:34;;;;;;;20.58;15.18;;;8.70;77.20;;;;;;5025521;28;20034;-65
2021/05/01 01:03:38;;;;;;;21.88;15.60;;;8.80;77.30;;;;;;5028185;28;20046;-64
2021/05/01 01:06:09;;;;;;;21.58;15.45;;;8.70;77.20;;;;;;5011350;28;20042;-64
2021/05/01 01:08:35;;;;;;;20.00;15.20;;;8.80;77.20;;;;;;5009717;28;20040;-64
2021/05/01 01:11:04;;;;;;;21.15;15.32;;;8.80;77.00;;;;;;5008572;28;20065;-65
2021/05/01 01:13:31;;;;;;;20.58;15.25;;;8.80;77.00;;;;;;5010107;28;20034;-65
2021/05/01 01:16:00;;;;;;;21.40;15.15;;;8.80;77.20;;;;;;5010415;28;20030;-65
2021/05/01 01:18:31;;;;;;;22.20;16.27;;;8.90;77.20;;;;;;5013593;28;20029;-65
2021/05/01 01:21:00;;;;;;;20.27;14.93;;;8.90;77.10;;;;;;5013323;28;20120;-64
2021/05/01 01:23:30;;;;;;;22.00;16.13;;;8.90;76.80;;;;;;5011564;28;20041;-64
2021/05/01 01:25:56;;;;;;;22.92;16.73;;;8.90;77.00;;;;;;5015546;28;20034;-65
2021/05/01 01:28:25;;;;;;;22.02;16.33;;;8.90;76.80;;;;;;5015931;28;20095;-65
2021/05/01 01:30:52;;;;;;;21.17;15.65;;;9.00;76.80;;;;;;5012760;28;20060;-64
2021/05/01 01:33:18;;;;;;;22.35;15.75;;;9.00;76.70;;;;;;5021711;28;20030;-65
2021/05/01 01:35:48;;;;;;;22.27;15.98;;;9.00;76.60;;;;;;5016024;28;20091;-64
2021/05/01 01:38:21;;;;;;;21.75;15.68;;;9.00;76.80;;;;;;5016155;28;20097;-64
2021/05/01 01:40:53;;;;;;;21.55;15.38;;;9.00;77.00;;;;;;5035668;28;20037;-65
2021/05/01 01:43:24;;;;;;;22.77;16.00;;;9.00;77.00;;;;;;5033292;28;20040;-65
2021/05/01 01:45:54;;;;;;;23.13;16.13;;;9.00;77.00;;;;;;5031086;28;20045;-65
2021/05/01 01:48:25;;;;;;;23.20;16.38;;;9.00;76.90;;;;;;5030386;28;20053;-65
2021/05/01 01:50:55;;;;;;;22.52;16.20;;;9.00;76.80;;;;;;5032451;28;20029;-65
2021/05/01 01:53:27;;;;;;;22.48;15.95;;;9.00;76.80;;;;;;5034500;28;20029;-65
2021/05/01 01:55:58;;;;;;;22.83;15.70;;;9.00;76.90;;;;;;5033189;28;20049;-65
2021/05/01 01:58:28;;;;;;;22.08;15.90;;;8.90;77.00;;;;;;5034638;28;20033;-65
2021/05/01 02:00:56;;;;;;;22.90;16.08;;;9.00;77.20;;;;;;5029497;28;20083;-65
2021/05/01 02:03:24;;;;;;;21.40;15.50;;;8.90;77.00;;;;;;5028219;28;20033;-64
2021/05/01 02:05:52;;;;;;;21.65;15.70;;;8.90;77.10;;;;;;5032357;28;20152;-64
2021/05/01 02:08:20;;;;;;;22.48;15.13;;;9.00;77.20;;;;;;5035915;28;20091;-65
2021/05/01 02:10:50;;;;;;;24.08;16.98;;;9.00;77.30;;;;;;5031371;28;20076;-65
2021/05/01 02:13:16;;;;;;;23.85;16.98;;;9.00;77.30;;;;;;5032123;28;20037;-65
2021/05/01 02:15:44;;;;;;;23.92;16.85;;;9.00;77.30;;;;;;5030653;28;20088;-64
2021/05/01 02:18:14;;;;;;;23.77;16.65;;;9.00;77.30;;;;;;5029135;28;20104;-65
2021/05/01 02:20:42;;;;;;;22.88;16.17;;;8.90;77.20;;;;;;5036195;28;20025;-65
2021/05/01 02:23:10;;;;;;;24.83;17.45;;;9.00;77.40;;;;;;5034315;28;20745;-64
2021/05/01 02:25:38;;;;;;;23.75;15.98;;;8.90;77.20;;;;;;5032337;28;20543;-64
2021/05/01 02:28:04;;;;;;;24.42;16.92;;;8.90;77.30;;;;;;5034800;28;20029;-64
2021/05/01 02:30:32;;;;;;;23.67;15.93;;;8.90;77.50;;;;;;5035362;28;20033;-65
2021/05/01 02:32:58;;;;;;;25.40;16.92;;;8.90;77.70;;;;;;5036337;28;20040;-65
2021/05/01 02:35:30;;;;;;;25.75;17.63;;;8.90;77.80;;;;;;5035112;28;20056;-65
2021/05/01 02:37:58;;;;;;;26.65;17.30;;;9.00;78.00;;;;;;5024256;28;20040;-65
2021/05/01 02:40:31;;;;;;;25.38;17.10;;;9.00;78.00;;;;;;5019277;28;20034;-65
2021/05/01 02:43:06;;;;;;;22.13;15.80;;;9.00;77.80;;;;;;5016729;28;20462;-65
2021/05/01 02:45:34;;;;;;;;;;;8.90;77.70;;;;;;5014732;28;20037;-65
2021/05/01 02:48:05;;;;;;;24.48;15.90;;;9.00;78.60;;;;;;5030458;28;20398;-64
2021/05/01 02:50:31;;;;;;;24.55;16.10;;;9.00;77.40;;;;;;5017849;28;20026;-65
2021/05/01 02:53:00;;;;;;;25.20;16.85;;;8.90;77.30;;;;;;5016943;28;20030;-65
2021/05/01 02:55:30;;;;;;;26.20;16.58;;;8.90;77.50;;;;;;5021376;28;20030;-65
2021/05/01 02:57:57;;;;;;;25.05;16.38;;;8.90;77.70;;;;;;5017217;28;20030;-65
2021/05/01 03:00:26;;;;;;;24.05;15.98;;;8.90;77.70;;;;;;5019387;28;20038;-65
2021/05/01 03:02:55;;;;;;;23.88;16.67;;;9.00;77.90;;;;;;5011616;28;20521;-65
2021/05/01 03:05:25;;;;;;;26.73;17.58;;;9.00;77.80;;;;;;5017386;28;20034;-65
2021/05/01 03:07:56;;;;;;;25.10;16.65;;;9.00;77.70;;;;;;5017303;28;20040;-64
2021/05/01 03:10:28;;;;;;;28.27;17.70;;;9.00;77.70;;;;;;5009153;28;20029;-65
2021/05/01 03:12:59;;;;;;;28.52;18.23;;;9.00;77.70;;;;;;5010379;28;20034;-64
2021/05/01 03:15:31;;;;;;;27.55;17.33;;;8.90;78.40;;;;;;5016689;28;20541;-65
2021/05/01 03:17:59;;;;;;;25.25;16.92;;;8.90;77.80;;;;;;5011163;28;20585;-65
2021/05/01 03:20:29;;;;;;;26.80;17.30;;;8.90;77.70;;;;;;5013713;28;20105;-65
2021/05/01 03:23:00;;;;;;;24.35;15.88;;;8.90;78.00;;;;;;5014347;28;20042;-65
2021/05/01 03:25:27;;;;;;;22.55;15.68;;;8.90;77.80;;;;;;5026859;28;20511;-65
2021/05/01 03:28:00;;;;;;;22.98;15.40;;;8.90;77.90;;;;;;5031732;28;20044;-64
2021/05/01 03:30:30;;;;;;;21.27;15.07;;;8.90;78.20;;;;;;5036710;28;20661;-65
2021/05/01 03:33:00;;;;;;;21.83;15.98;;;9.00;78.20;;;;;;5033403;28;20033;-65
2021/05/01 03:35:33;;;;;;;21.73;15.75;;;9.00;78.20;;;;;;5033575;28;20408;-65
2021/05/01 03:38:01;;;;;;;23.50;16.85;;;9.00;78.20;;;;;;5037578;28;20045;-65
2021/05/01 03:40:26;;;;;;;22.67;16.05;;;9.10;78.00;;;;;;5033659;28;20037;-65
2021/05/01 03:42:52;;;;;;;22.50;15.18;;;9.10;77.90;;;;;;5032470;28;20042;-65
2021/05/01 03:45:20;;;;;;;24.95;17.02;;;9.10;77.90;;;;;;5032614;28;20030;-65
2021/05/01 03:47:48;;;;;;;23.42;16.52;;;9.20;77.90;;;;;;5031319;28;20029;-64
2021/05/01 03:50:18;;;;;;;24.25;16.65;;;9.20;77.70;;;;;;5034261;28;20033;-64
2021/05/01 03:52:46;;;;;;;25.25;17.55;;;9.30;77.90;;;;;;5035199;28;20034;-64
2021/05/01 03:55:16;;;;;;;24.60;16.75;;;9.30;77.70;;;;;;5038025;28;20060;-65
2021/05/01 03:57:46;;;;;;;25.35;17.67;;;9.30;77.50;;;;;;5035617;28;20049;-64
2021/05/01 04:00:17;;;;;;;25.33;17.90;;;9.30;77.50;;;;;;5037406;28;20512;-64
2021/05/01 04:02:47;;;;;;;25.65;18.10;;;9.30;77.30;;;;;;5037236;28;20412;-65
2021/05/01 04:05:15;;;;;;;25.58;18.85;;;9.30;77.20;;;;;;5036767;28;20132;-65
2021/05/01 04:07:44;;;;;;;26.88;18.55;;;9.40;77.40;;;;;;5035384;28;20551;-65
2021/05/01 04:10:17;;;;;;;28.02;18.70;;;9.30;77.20;;;;;;5036334;28;20037;-65
2021/05/01 04:12:45;;;;;;;29.42;19.33;;;9.40;77.30;;;;;;5031335;28;20044;-65
2021/05/01 04:15:15;;;;;;;29.80;18.73;;;9.40;77.20;;;;;;5030407;28;20045;-65
2021/05/01 04:17:46;;;;;;;30.05;19.17;;;9.50;77.30;;;;;;5031320;28;20512;-66
2021/05/01 04:20:15;;;;;;;30.58;18.73;;;9.50;77.30;;;;;;5032141;28;20520;-65
2021/05/01 04:22:43;;;;;;;31.13;19.80;;;9.50;77.00;;;;;;5035029;28;20060;-65
2021/05/01 04:25:12;;;;;;;31.33;20.05;;;9.60;77.00;;;;;;5034707;28;20737;-64
2021/05/01 04:27:42;;;;;;;30.67;18.73;;;9.60;76.80;;;;;;5036433;28;20055;-66
2021/05/01 04:30:14;;;;;;;31.30;20.02;;;9.60;76.80;;;;;;5035959;28;20034;-65
2021/05/01 04:32:42;;;;;;;35.33;20.90;;;9.60;76.60;;;;;;5032000;28;20029;-65
2021/05/01 04:35:15;;;;;;;33.22;20.02;;;9.60;76.60;;;;;;5033630;28;20163;-65
2021/05/01 04:37:45;;;;;;;32.70;20.88;;;9.70;76.50;;;;;;5030444;28;20045;-65
2021/05/01 04:40:14;;;;;;;30.25;19.27;;;9.70;76.50;;;;;;5028086;28;20041;-63
2021/05/01 04:42:51;;;;;;;35.38;21.40;;;9.70;76.30;;;;;;5030039;28;20029;-64
2021/05/01 04:45:20;;;;;;;32.65;20.83;;;9.70;76.10;;;;;;5028429;28;21172;-64
2021/05/01 04:47:46;;;;;;;34.22;22.15;;;9.70;76.10;;;;;;5043361;28;20030;-64
2021/05/01 04:50:15;;;;;;;33.47;22.40;;;9.70;76.10;;;;;;5032598;28;20037;-65
2021/05/01 04:52:47;;;;;;;32.83;21.17;;;9.80;76.30;;;;;;5031554;28;20113;-65
2021/05/01 04:55:16;;;;;;;32.97;21.10;;;9.80;76.10;;;;;;5036259;28;20504;-65
2021/05/01 04:57:48;;;;;;;29.83;19.98;;;9.80;76.00;;;;;;5032218;28;20042;-64
2021/05/01 05:00:19;;;;;;;31.23;19.98;;;9.80;76.10;;;;;;5034553;28;20067;-65
2021/05/01 05:02:50;;;;;;;32.78;21.48;;;9.70;76.10;;;;;;5034492;28;20044;-65
2021/05/01 05:05:19;;;;;;;30.88;20.92;;;9.80;76.00;;;;;;5033177;28;20451;-65
2021/05/01 05:07:49;;;;;;;31.25;20.17;;;9.80;76.00;;;;;;5034013;28;20026;-65
2021/05/01 05:10:20;;;;;;;32.92;21.08;;;9.70;75.80;;;;;;5029618;28;20042;-64
2021/05/01 05:12:50;;;;;;;30.98;20.35;;;9.70;76.00;;;;;;5030430;28;20552;-65
2021/05/01 05:15:18;;;;;;;32.58;20.30;;;9.70;76.20;;;;;;5030136;28;20045;-65
2021/05/01 05:17:46;;;;;;;33.67;21.92;;;9.80;76.30;;;;;;5033479;28;20053;-65
2021/05/01 05:20:16;;;;;;;34.28;21.77;;;9.70;76.50;;;;;;5032222;28;20455;-65
2021/05/01 05:22:41;;;;;;;29.90;20.27;;;9.70;76.50;;;;;;5036077;28;20041;-64
2021/05/01 05:25:10;;;;;;;34.30;21.35;;;9.70;76.40;;;;;;5037060;28;20045;-65
2021/05/01 05:27:40;;;;;;;32.75;20.75;;;9.80;76.30;;;;;;5031625;28;20033;-65
2021/05/01 05:30:11;;;;;;;31.80;20.30;;;9.80;76.10;;;;;;5033469;28;20053;-66
2021/05/01 05:32:41;;;;;;;34.13;21.35;;;9.80;76.00;;;;;;5030400;28;20045;-65
2021/05/01 05:35:09;;;;;;;34.30;21.70;;;9.80;75.90;;;;;;5031586;28;20057;-64
2021/05/01 05:37:37;;;;;;;33.45;20.92;;;9.80;75.80;;;;;;5032824;28;20037;-64
2021/05/01 05:40:11;;;;;;;32.72;19.67;;;9.70;75.80;;;;;;5034177;28;20087;-65
2021/05/01 05:42:41;;;;;;;34.00;20.95;;;9.80;76.10;;;;;;5030662;28;20492;-65
2021/05/01 05:45:12;;;;;;;36.28;20.63;;;9.80;75.80;;;;;;5033036;28;20052;-65
2021/05/01 05:47:43;;;;;;;36.40;20.98;;;9.70;75.80;;;;;;5030776;28;20036;-64
2021/05/01 05:50:13;;;;;;;34.72;19.70;;;9.70;75.80;;;;;;5029882;28;20047;-64
2021/05/01 05:52:39;;;;;;;35.83;20.67;;;9.70;75.80;;;;;;5026481;28;20031;-64
2021/05/01 05:55:11;;;;;;;37.60;20.77;;;9.70;75.70;;;;;;5028263;28;20551;-65
2021/05/01 05:57:40;;;;;;;39.00;21.40;;;9.70;75.80;;;;;;5035499;28;20029;-65
2021/05/01 06:00:11;;;;;;;42.20;21.55;;;9.70;75.70;;;;;;5032133;28;20049;-65
2021/05/01 06:02:43;;;;;;;37.70;22.00;;;9.70;75.70;;;;;;5016804;28;20069;-65
2021/05/01 06:05:25;;;;;;;38.53;21.88;;;9.70;76.60;;;;;;5035164;28;20041;-65
2021/05/01 06:07:54;;;;;;;36.83;20.85;;;9.70;75.80;;;;;;5029748;28;20033;-65
2021/05/01 06:10:23;;;;;;;34.70;21.52;;;9.70;75.70;;;;;;5029918;28;20033;-65
2021/05/01 06:12:52;;;;;;;36.92;22.50;;;9.70;75.60;;;;;;5028943;28;20094;-65
2021/05/01 06:15:20;;;;;;;37.25;23.63;;;9.80;75.60;;;;;;5034620;28;20037;-64
2021/05/01 06:17:54;;;;;;;37.40;22.45;;;9.70;75.50;;;;;;5030754;28;20075;-64
2021/05/01 06:20:22;;;;;;;36.78;23.13;;;9.70;76.30;;;;;;5031297;28;20029;-64
2021/05/01 06:22:53;;;;;;;34.70;21.58;;;9.70;75.40;;;;;;5030289;28;20049;-64
2021/05/01 06:25:27;;;;;;;33.30;20.90;;;9.70;75.60;;;;;;5029083;28;20041;-64
2021/05/01 06:27:57;;;;;;;36.95;22.23;;;9.70;75.70;;;;;;5029320;28;20033;-64
2021/05/01 06:30:24;;;;;;;38.33;22.92;;;9.70;75.60;;;;;;5033120;28;20030;-64
2021/05/01 06:32:53;;;;;;;35.78;21.88;;;9.70;75.50;;;;;;5033619;28;20052;-64
2021/05/01 06:35:25;;;;;;;37.53;22.10;;;9.70;75.40;;;;;;5016371;28;20033;-65
2021/05/01 06:37:52;;;;;;;38.10;21.50;;;9.70;75.40;;;;;;5024828;28;20060;-64
2021/05/01 06:40:22;;;;;;;36.47;21.05;;;9.70;76.20;;;;;;5022142;28;20044;-64
2021/05/01 06:43:04;;;;;;;37.75;21.83;;;9.70;75.30;;;;;;5023773;28;20730;-64
2021/05/01 06:45:38;;;;;;;36.35;20.83;;;9.70;75.50;;;;;;5023697;28;20041;-65
2021/05/01 06:48:08;;;;;;;35.03;20.23;;;9.70;75.60;;;;;;5019079;28;20056;-64
2021/05/01 06:50:40;;;;;;;34.95;19.90;;;9.70;75.60;;;;;;5017369;28;20030;-65
2021/05/01 06:53:14;;;;;;;37.75;21.92;;;9.70;75.50;;;;;;5018740;28;20068;-64
2021/05/01 06:55:43;;;;;;;39.67;21.57;;;9.70;75.60;;;;;;5017888;28;20661;-64
2021/05/01 06:58:13;;;;;;;40.45;22.17;;;9.70;75.60;;;;;;5020499;28;20303;-64
2021/05/01 07:00:41;;;;;;;39.25;22.08;;;9.70;75.60;;;;;;5019344;28;20037;-64
2021/05/01 07:03:11;;;;;;;36.15;20.95;;;9.70;75.70;;;;;;5022182;28;20043;-64
2021/05/01 07:05:39;;;;;;;35.30;20.10;;;9.80;75.80;;;;;;5018957;28;20041;-64
2021/05/01 07:08:08;;;;;;;37.22;20.63;;;9.80;75.80;;;;;;5020901;28;20080;-65
2021/05/01 07:10:33;;;;;;;35.25;19.73;;;9.80;75.70;;;;;;5021006;28;20404;-64
2021/05/01 07:13:06;;;;;;;38.25;21.10;;;9.80;75.60;;;;;;5020423;28;20033;-65
2021/05/01 07:15:34;;;;;;;35.58;20.58;;;9.80;75.80;;;;;;5028134;28;20408;-64
2021/05/01 07:18:05;;;;;;;39.63;20.75;;;9.80;75.70;;;;;;5035664;28;20721;-64
2021/05/01 07:20:33;;;;;;;35.92;20.73;;;9.90;75.70;;;;;;5034433;28;20029;-65
2021/05/01 07:23:01;;;;;;;33.85;19.17;;;9.90;76.00;;;;;;5036721;28;20562;-65
2021/05/01 07:25:26;;;;;;;34.50;19.35;;;9.90;76.10;;;;;;5036206;28;20036;-65
2021/05/01 07:27:59;;;;;;;30.77;18.45;;;10.00;76.20;;;;;;5036958;28;20041;-65
2021/05/01 07:30:31;;;;;;;30.15;17.45;;;10.00;76.50;;;;;;5035036;28;20041;-64
2021/05/01 07:33:07;;;;;;;30.63;17.98;;;10.00;77.20;;;;;;5036934;28;20508;-63
2021/05/01 07:35:39;;;;;;;29.83;17.90;;;10.10;76.80;;;;;;5036119;28;20046;-64
2021/05/01 07:38:13;;;;;;;28.48;17.23;;;10.20;76.60;;;;;;5035728;28;20044;-64
2021/05/01 07:40:39;;;;;;;27.92;16.92;;;10.20;76.20;;;;;;5035317;28;20060;-64
2021/05/01 07:43:16;;;;;;;31.17;18.48;;;10.30;76.00;;;;;;5033411;28;20408;-64
2021/05/01 07:45:44;;;;;;;29.63;17.55;;;10.30;76.00;;;;;;5035755;28;20041;-64
2021/05/01 07:48:16;;;;;;;27.23;16.67;;;10.30;75.60;;;;;;5034525;28;20584;-65
2021/05/01 07:50:47;;;;;;;27.75;16.05;;;10.40;75.50;;;;;;5034782;28;20049;-64
2021/05/01 07:53:15;;;;;;;30.00;17.08;;;10.40;75.60;;;;;;5036138;28;20036;-65
2021/05/01 07:55:42;;;;;;;26.05;15.88;;;10.50;75.50;;;;;;5034653;28;20037;-64
2021/05/01 07:58:10;;;;;;;27.60;16.25;;;10.50;75.50;;;;;;5034745;28;20036;-64
2021/05/01 08:00:40;;;;;;;27.05;16.88;;;10.60;75.60;;;;;;5034580;28;20120;-64
2021/05/01 08:03:08;;;;;;;26.65;16.65;;;10.60;75.30;;;;;;5034604;28;20034;-65
2021/05/01 08:05:37;;;;;;;27.42;17.13;;;10.60;74.90;;;;;;5032348;28;20045;-64
2021/05/01 08:08:07;;;;;;;25.27;15.60;;;10.60;74.70;;;;;;5033199;28;20410;-64
2021/05/01 08:10:35;;;;;;;25.90;16.42;;;10.60;74.50;;;;;;5031154;28;20053;-65
2021/05/01 08:13:03;;;;;;;26.17;15.55;;;10.60;74.70;;;;;;5016685;28;20029;-64
2021/05/01 08:15:33;;;;;;;27.23;16.58;;;10.70;74.90;;;;;;5012098;28;20040;-65
2021/05/01 08:18:04;;;;;;;27.45;15.95;;;10.70;74.80;;;;;;5016989;28;20501;-65
2021/05/01 08:20:33;;;;;;;25.70;16.25;;;10.70;74.60;;;;;;5014894;28;20493;-65
2021/05/01 08:23:00;;;;;;;25.40;15.13;;;10.80;74.70;;;;;;5015762;28;20047;-65
2021/05/01 08:25:29;;;;;;;25.88;15.80;;;10.80;74.70;;;;;;5015419;28;20030;-64
2021/05/01 08:28:01;;;;;;;26.75;16.10;;;10.80;74.60;;;;;;5013986;28;20041;-65
2021/05/01 08:30:27;;;;;;;25.00;15.32;;;10.90;74.50;;;;;;5015925;28;20026;-64
2021/05/01 08:32:55;;;;;;;24.23;15.02;;;10.90;74.30;;;;;;5014888;28;20516;-65
2021/05/01 08:35:23;;;;;;;21.83;13.68;;;10.90;74.30;;;;;;5013001;28;20033;-65
2021/05/01 08:37:54;;;;;;;20.83;13.38;;;10.90;74.10;;;;;;5012875;28;20034;-65
2021/05/01 08:40:19;;;;;;;22.17;14.35;;;10.90;74.00;;;;;;5017173;28;20478;-65
2021/05/01 08:42:50;;;;;;;23.42;14.07;;;10.90;74.00;;;;;;5016757;28;20127;-65
2021/05/01 08:45:23;;;;;;;22.67;14.73;;;10.90;74.20;;;;;;5017452;28;22259;-65
2021/05/01 08:47:51;;;;;;;23.85;15.48;;;10.90;74.10;;;;;;5017569;28;20413;-65
2021/05/01 08:50:37;;;;;;;24.20;15.95;;;10.90;74.00;;;;;;5017521;28;20504;-65
2021/05/01 08:53:03;;;;;;;25.15;15.35;;;10.80;74.00;;;;;;5016307;28;20029;-65
2021/05/01 08:55:38;;;;;;;25.73;16.25;;;10.80;73.90;;;;;;5013831;28;20087;-65
2021/05/01 08:58:07;;;;;;;23.92;14.75;;;10.80;74.20;;;;;;5015761;28;20029;-65
2021/05/01 09:00:35;;;;;;;23.10;14.65;;;10.70;74.10;;;;;;5023040;28;20121;-65
2021/05/01 09:03:04;;;;;;;23.70;13.73;;;10.70;74.30;;;;;;5016433;28;20041;-65
2021/05/01 09:05:33;;;;;;;21.83;13.95;;;10.80;74.60;;;;;;5014524;28;20120;-65
2021/05/01 09:08:01;;;;;;;22.67;14.00;;;10.80;74.40;;;;;;5016618;28;20054;-65
2021/05/01 09:10:37;;;;;;;21.40;13.35;;;10.80;74.30;;;;;;5013361;28;20026;-65
2021/05/01 09:13:11;;;;;;;22.65;14.55;;;10.80;74.40;;;;;;5016889;28;20030;-65
2021/05/01 09:15:53;;;;;;;24.30;14.30;;;10.90;74.40;;;;;;5012044;28;20147;-65
2021/05/01 09:18:21;;;;;;;25.88;16.33;;;10.90;74.30;;;;;;5016586;28;20681;-65
2021/05/01 09:20:47;;;;;;;26.55;15.57;;;10.90;74.20;;;;;;5010688;28;20034;-65
2021/05/01 09:23:17;;;;;;;23.17;15.27;;;10.90;74.30;;;;;;5014542;28;20523;-65
2021/05/01 09:25:56;;;;;;;24.50;14.88;;;10.90;74.40;;;;;;5012124;28;20049;-65
2021/05/01 09:28:39;;;;;;;25.48;16.77;;;10.90;74.30;;;;;;5014856;28;20030;-65
2021/05/01 09:31:17;;;;;;;24.83;15.43;;;10.90;74.30;;;;;;5016890;28;20022;-65
2021/05/01 09:33:55;;;;;;;24.45;14.65;;;10.90;74.30;;;;;;5013010;28;20029;-65
2021/05/01 09:36:23;;;;;;;24.67;15.63;;;11.00;74.40;;;;;;5016781;28;20033;-65
2021/05/01 09:39:14;;;;;;;22.73;13.93;;;11.00;74.10;;;;;;5014843;28;20045;-65
2021/05/01 09:41:42;;;;;;;24.85;15.07;;;11.00;73.90;;;;;;5011724;28;20025;-65
2021/05/01 09:44:12;;;;;;;26.00;15.73;;;11.10;73.90;;;;;;5014193;28;20532;-65
2021/05/01 09:46:42;;;;;;;26.52;16.42;;;11.10;74.00;;;;;;5012649;28;20026;-65
2021/05/01 09:49:17;;;;;;;24.95;15.35;;;11.10;73.80;;;;;;5014608;28;20041;-65
2021/05/01 09:51:46;;;;;;;31.00;17.38;;;11.10;73.70;;;;;;5016232;28;20068;-65
2021/05/01 09:54:16;;;;;;;27.45;16.42;;;11.10;73.70;;;;;;5018530;28;20054;-65
2021/05/01 09:56:44;;;;;;;25.30;16.00;;;11.10;73.70;;;;;;5009877;28;20026;-64
2021/05/01 09:59:17;;;;;;;28.52;17.58;;;11.10;73.80;;;;;;5012503;28;20077;-65
2021/05/01 10:01:58;;;;;;;25.70;16.27;;;11.10;73.70;;;;;;5009382;28;20113;-65
2021/05/01 10:04:24;;;;;;;26.15;16.27;;;11.10;73.40;;;;;;5014284;28;20042;-65
2021/05/01 10:06:55;;;;;;;27.90;17.52;;;11.00;73.50;;;;;;5016278;28;20034;-65
2021/05/01 10:09:25;;;;;;;26.85;16.42;;;11.10;73.50;;;;;;5017161;28;20230;-65
2021/05/01 10:12:13;;;;;;;26.45;15.77;;;11.00;73.40;;;;;;5010502;28;20040;-64
2021/05/01 10:14:55;;;;;;;29.83;17.40;;;11.10;73.80;;;;;;5015977;28;20465;-65
2021/05/01 10:17:23;;;;;;;23.92;15.57;;;11.10;73.60;;;;;;5012746;28;20049;-65
2021/05/01 10:19:57;;;;;;;25.63;16.35;;;11.10;73.70;;;;;;5016820;28;20041;-64
2021/05/01 10:22:28;;;;;;;26.88;17.08;;;11.10;73.70;;;;;;5014760;28;20125;-65
2021/05/01 10:24:57;;;;;;;26.73;16.05;;;11.10;73.50;;;;;;5016592;28;20038;-65
2021/05/01 10:27:24;;;;;;;29.13;17.50;;;11.10;73.60;;;;;;5016412;28;20103;-65
2021/05/01 10:30:44;;;;;;;27.75;17.48;;;11.10;73.60;;;;;;5016838;28;20619;-64
2021/05/01 10:33:41;;;;;;;29.48;17.38;;;11.20;73.20;;;;;;5013818;28;20293;-65
2021/05/01 10:36:25;;;;;;;24.80;15.80;;;11.10;73.00;;;;;;5015664;28;20117;-64
2021/05/01 10:39:09;;;;;;;28.30;17.23;;;11.10;73.20;;;;;;5014909;28;20065;-65
2021/05/01 10:41:38;;;;;;;28.10;17.38;;;11.10;73.10;;;;;;5013363;28;20113;-64
2021/05/01 10:44:09;;;;;;;24.80;15.82;;;11.00;73.00;;;;;;5014692;28;20033;-64
2021/05/01 10:46:43;;;;;;;26.10;16.45;;;11.00;73.00;;;;;;5011274;28;20120;-64
2021/05/01 10:49:10;;;;;;;24.92;15.43;;;11.00;73.30;;;;;;5015026;28;20037;-64
2021/05/01 10:51:41;;;;;;;28.42;17.45;;;11.00;73.50;;;;;;5013981;28;20116;-64
2021/05/01 10:54:24;;;;;;;29.60;18.70;;;11.00;73.80;;;;;;5025546;28;20109;-64
2021/05/01 10:57:00;;;;;;;27.73;16.35;;;11.10;73.60;;;;;;5018522;28;20374;-64
2021/05/01 10:59:32;;;;;;;29.25;17.58;;;11.10;73.40;;;;;;5018281;28;20037;-64
2021/05/01 11:02:01;;;;;;;26.58;15.75;;;11.10;73.50;;;;;;5010643;28;20072;-64
2021/05/01 11:04:33;;;;;;;28.20;16.73;;;11.10;74.40;;;;;;5018207;28;20037;-64
2021/05/01 11:07:22;;;;;;;28.65;17.33;;;11.10;73.50;;;;;;5016478;28;20042;-64
2021/05/01 11:09:53;;;;;;;30.15;17.73;;;11.20;73.50;;;;;;5018017;28;20061;-64
2021/05/01 11:12:24;;;;;;;28.75;18.00;;;11.20;73.20;;;;;;5016462;28;20527;-65
2021/05/01 11:14:55;;;;;;;28.52;17.77;;;11.20;73.10;;;;;;5018199;28;20041;-64
2021/05/01 11:17:34;;;;;;;30.67;18.77;;;11.20;73.10;;;;;;5017979;28;20026;-65
2021/05/01 11:20:12;;;;;;;33.55;19.35;;;11.20;72.80;;;;;;5018711;28;20084;-64
2021/05/01 11:22:44;;;;;;;29.27;18.92;;;11.20;72.60;;;;;;5019275;28;20508;-65
2021/05/01 11:25:15;;;;;;;29.50;18.60;;;11.10;72.60;;;;;;5018077;28;20712;-65
2021/05/01 11:27:46;;;;;;;29.48;17.35;;;11.10;72.80;;;;;;5019796;28;20110;-66
2021/05/01 11:30:16;;;;;;;32.75;19.30;;;11.10;73.90;;;;;;5015433;28;20038;-64
2021/05/01 11:32:42;;;;;;;30.48;18.25;;;11.00;72.90;;;;;;5018156;28;20034;-65
2021/05/01 11:35:15;;;;;;;29.05;17.63;;;11.00;72.90;;;;;;5017866;28;20080;-65
2021/05/01 11:37:51;;;;;;;28.70;17.02;;;11.00;73.00;;;;;;5017383;28;20070;-64
2021/05/01 11:40:26;;;;;;;27.23;16.83;;;11.00;73.10;;;;;;5024804;28;20037;-64
2021/05/01 11:42:59;;;;;;;26.92;16.58;;;11.00;73.20;;;;;;5016649;28;20042;-65
2021/05/01 11:45:44;;;;;;;27.88;17.40;;;11.00;73.30;;;;;;5015667;28;20045;-64
2021/05/01 11:48:45;;;;;;;25.67;16.53;;;11.00;73.30;;;;;;5016386;28;20113;-65
2021/05/01 11:51:17;;;;;;;26.67;16.98;;;11.10;73.80;;;;;;5002435;28;20271;-64
2021/05/01 11:53:53;;;;;;;27.65;16.85;;;11.10;73.50;;;;;;5044987;28;20036;-65
2021/05/01 11:56:52;;;;;;;26.55;16.92;;;11.10;73.20;;;;;;5035537;28;20029;-64
2021/05/01 11:59:20;;;;;;;26.10;15.77;;;11.10;73.10;;;;;;5033045;28;20037;-65
2021/05/01 12:02:03;;;;;;;23.23;14.40;;;11.20;73.20;;;;;;5045628;28;20033;-65
2021/05/01 12:04:51;;;;;;;22.85;15.05;;;11.20;72.80;;;;;;5032779;28;20547;-65
2021/05/01 12:07:51;;;;;;;22.60;14.25;;;11.30;73.00;;;;;;5044258;28;20083;-64
2021/05/01 12:10:21;;;;;;;21.13;14.27;;;11.30;72.40;;;;;;5022902;28;20033;-65
2021/05/01 12:13:13;;;;;;;23.30;14.57;;;11.30;71.80;;;;;;5034315;28;20452;-64
2021/05/01 12:15:46;;;;;;;21.58;14.45;;;11.40;72.20;;;;;;5035636;28;20029;-65
2021/05/01 12:18:14;;;;;;;24.73;14.98;;;11.40;71.90;;;;;;5034247;28;20531;-65
2021/05/01 12:20:42;;;;;;;25.17;15.45;;;11.40;72.00;;;;;;5050602;28;20033;-65
2021/05/01 12:23:37;;;;;;;23.80;14.82;;;11.40;71.50;;;;;;5036843;28;20034;-65
2021/05/01 12:26:10;;;;;;;23.37;14.43;;;11.40;71.50;;;;;;5049699;28;20037;-64
2021/05/01 12:28:42;;;;;;;22.65;14.35;;;11.40;71.90;;;;;;5035077;28;20280;-65
2021/05/01 12:31:11;;;;;;;23.45;15.20;;;11.40;72.00;;;;;;5044842;28;20029;-65
2021/05/01 12:33:36;;;;;;;23.50;15.10;;;11.40;71.80;;;;;;5035304;28;20025;-65
2021/05/01 12:36:09;;;;;;;22.88;15.00;;;11.50;71.80;;;;;;5035698;28;20052;-64
2021/05/01 12:38:40;;;;;;;21.65;14.25;;;11.50;71.40;;;;;;5037186;28;20037;-65
2021/05/01 12:41:09;;;;;;;18.90;13.70;;;11.50;71.50;;;;;;5033376;28;20055;-65
2021/05/01 12:43:42;;;;;;;20.50;13.55;;;11.50;71.50;;;;;;5036087;28;20036;-65
2021/05/01 12:46:28;;;;;;;19.27;13.68;;;11.50;71.70;;;;;;5033680;28;20033;-65
2021/05/01 12:48:59;;;;;;;18.83;13.10;;;11.50;71.80;;;;;;5035749;28;20029;-64
2021/05/01 12:51:38;;;;;;;18.38;13.35;;;11.50;72.00;;;;;;5033686;28;20029;-64
2021/05/01 12:54:28;;;;;;;20.23;13.55;;;11.60;71.90;;;;;;5034103;28;20029;-64
2021/05/01 12:56:56;;;;;;;22.13;14.82;;;11.60;71.20;;;;;;5033655;28;20028;-64